sensor_id;sensor_type;location;lat;lon;timestamp;temperature;humidity
11736;DHT22;5924;51.398;7.088;2022-09-03T00:00:22;15.60;1.00
11736;DHT22;5924;51.398;7.088;2022-09-03T00:03:21;15.50;1.00
11736;DHT22;5924;51.398;7.088;2022-09-03T00:05:59;15.50;1.00
11736;DHT22;5924;51.398;7.088;2022-09-03T00:08:33;15.50;1.00
11736;DHT22;5924;51.398;7.088;2022-09-03T00:13:43;15.30;1.00
11736;DHT22;5924;51.398;7.088;2022-09-03T00:16:11;15.30;1.00
11736;DHT22;5924;51.398;7.088;2022-09-03T00:18:46;15.30;1.00
11736;DHT22;5924;51.398;7.088;2022-09-03T00:21:37;15.20;1.00
11736;DHT22;5924;51.398;7.088;2022-09-03T00:24:07;15.20;1.00
11736;DHT22;5924;51.398;7.088;2022-09-03T00:26:37;15.30;1.00
11736;DHT22;5924;51.398;7.088;2022-09-03T00:29:08;15.30;1.00
11736;DHT22;5924;51.398;7.088;2022-09-03T00:31:39;15.20;1.00
11736;DHT22;5924;51.398;7.088;2022-09-03T00:36:51;15.10;1.00
11736;DHT22;5924;51.398;7.088;2022-09-03T00:39:19;15.10;1.00
11736;DHT22;5924;51.398;7.088;2022-09-03T00:53:48;15.10;1.00
11736;DHT22;5924;51.398;7.088;2022-09-03T00:59:43;15.10;1.00
11736;DHT22;5924;51.398;7.088;2022-09-03T01:07:33;15.10;1.00
11736;DHT22;5924;51.398;7.088;2022-09-03T01:10:17;15.10;1.00
11736;DHT22;5924;51.398;7.088;2022-09-03T01:15:19;15.00;1.00
11736;DHT22;5924;51.398;7.088;2022-09-03T01:18:04;15.10;1.00
11736;DHT22;5924;51.398;7.088;2022-09-03T01:20:54;15.10;1.00
11736;DHT22;5924;51.398;7.088;2022-09-03T01:26:13;15.10;1.00
11736;DHT22;5924;51.398;7.088;2022-09-03T01:31:35;15.10;1.00
11736;DHT22;5924;51.398;7.088;2022-09-03T01:43:29;15.10;1.00
11736;DHT22;5924;51.398;7.088;2022-09-03T01:46:13;15.00;1.00
11736;DHT22;5924;51.398;7.088;2022-09-03T01:51:23;15.00;1.00
11736;DHT22;5924;51.398;7.088;2022-09-03T02:02:26;14.90;1.00
11736;DHT22;5924;51.398;7.088;2022-09-03T02:05:09;14.90;1.00
11736;DHT22;5924;51.398;7.088;2022-09-03T02:07:42;15.00;1.00
11736;DHT22;5924;51.398;7.088;2022-09-03T02:10:12;15.00;1.00
11736;DHT22;5924;51.398;7.088;2022-09-03T02:12:39;12.30;1.00
11736;DHT22;5924;51.398;7.088;2022-09-03T02:15:11;15.00;1.00
11736;DHT22;5924;51.398;7.088;2022-09-03T02:17:39;15.00;1.00
11736;DHT22;5924;51.398;7.088;2022-09-03T02:20:09;14.90;1.00
11736;DHT22;5924;51.398;7.088;2022-09-03T02:22:37;14.90;1.00
11736;DHT22;5924;51.398;7.088;2022-09-03T02:25:04;15.00;1.00
11736;DHT22;5924;51.398;7.088;2022-09-03T02:27:30;15.00;1.00
11736;DHT22;5924;51.398;7.088;2022-09-03T02:29:57;15.00;1.00
11736;DHT22;5924;51.398;7.088;2022-09-03T02:32:23;15.00;1.00
11736;DHT22;5924;51.398;7.088;2022-09-03T02:34:48;14.90;1.00
11736;DHT22;5924;51.398;7.088;2022-09-03T02:37:16;14.90;1.00
11736;DHT22;5924;51.398;7.088;2022-09-03T02:39:43;15.80;1.00
11736;DHT22;5924;51.398;7.088;2022-09-03T02:42:12;14.70;1.00
11736;DHT22;5924;51.398;7.088;2022-09-03T02:44:42;14.70;1.00
11736;DHT22;5924;51.398;7.088;2022-09-03T02:47:09;13.30;1.00
11736;DHT22;5924;51.398;7.088;2022-09-03T02:49:34;14.60;1.00
11736;DHT22;5924;51.398;7.088;2022-09-03T02:52:06;14.50;1.00
11736;DHT22;5924;51.398;7.088;2022-09-03T02:54:37;14.50;78.00
11736;DHT22;5924;51.398;7.088;2022-09-03T02:57:08;14.50;99.90
11736;DHT22;5924;51.398;7.088;2022-09-03T02:59:34;14.40;99.90
11736;DHT22;5924;51.398;7.088;2022-09-03T03:02:00;14.40;99.90
11736;DHT22;5924;51.398;7.088;2022-09-03T03:04:26;14.40;99.90
11736;DHT22;5924;51.398;7.088;2022-09-03T03:06:52;14.30;1.00
11736;DHT22;5924;51.398;7.088;2022-09-03T03:09:18;14.30;1.00
11736;DHT22;5924;51.398;7.088;2022-09-03T03:11:44;14.20;1.00
11736;DHT22;5924;51.398;7.088;2022-09-03T03:14:09;14.10;62.40
11736;DHT22;5924;51.398;7.088;2022-09-03T03:16:35;14.10;99.90
11736;DHT22;5924;51.398;7.088;2022-09-03T03:19:01;14.00;99.90
11736;DHT22;5924;51.398;7.088;2022-09-03T03:21:27;14.00;1.00
11736;DHT22;5924;51.398;7.088;2022-09-03T03:23:53;14.20;1.00
11736;DHT22;5924;51.398;7.088;2022-09-03T03:26:19;14.00;99.90
11736;DHT22;5924;51.398;7.088;2022-09-03T03:28:46;14.00;99.90
11736;DHT22;5924;51.398;7.088;2022-09-03T03:31:14;14.10;99.90
11736;DHT22;5924;51.398;7.088;2022-09-03T03:33:40;14.00;1.00
11736;DHT22;5924;51.398;7.088;2022-09-03T03:36:13;14.00;1.00
11736;DHT22;5924;51.398;7.088;2022-09-03T03:38:40;13.90;9.30
11736;DHT22;5924;51.398;7.088;2022-09-03T03:41:17;13.90;99.90
11736;DHT22;5924;51.398;7.088;2022-09-03T03:43:43;13.80;1.00
11736;DHT22;5924;51.398;7.088;2022-09-03T03:46:09;13.70;99.90
11736;DHT22;5924;51.398;7.088;2022-09-03T03:48:36;13.70;1.00
11736;DHT22;5924;51.398;7.088;2022-09-03T03:51:05;13.60;1.00
11736;DHT22;5924;51.398;7.088;2022-09-03T03:53:36;13.60;99.90
11736;DHT22;5924;51.398;7.088;2022-09-03T03:56:08;13.60;1.00
11736;DHT22;5924;51.398;7.088;2022-09-03T03:58:36;13.60;1.00
11736;DHT22;5924;51.398;7.088;2022-09-03T04:01:10;13.60;1.00
11736;DHT22;5924;51.398;7.088;2022-09-03T04:03:36;13.60;1.00
11736;DHT22;5924;51.398;7.088;2022-09-03T04:06:03;13.50;99.90
11736;DHT22;5924;51.398;7.088;2022-09-03T04:08:29;13.50;99.90
11736;DHT22;5924;51.398;7.088;2022-09-03T04:10:59;13.40;1.00
11736;DHT22;5924;51.398;7.088;2022-09-03T04:13:33;13.30;1.00
11736;DHT22;5924;51.398;7.088;2022-09-03T04:16:01;13.20;1.00
11736;DHT22;5924;51.398;7.088;2022-09-03T04:18:26;13.20;72.30
11736;DHT22;5924;51.398;7.088;2022-09-03T04:20:52;13.20;99.90
11736;DHT22;5924;51.398;7.088;2022-09-03T04:23:17;13.20;99.90
11736;DHT22;5924;51.398;7.088;2022-09-03T04:25:43;13.20;99.90
11736;DHT22;5924;51.398;7.088;2022-09-03T04:28:09;13.20;99.90
11736;DHT22;5924;51.398;7.088;2022-09-03T04:30:36;13.30;99.90
11736;DHT22;5924;51.398;7.088;2022-09-03T04:33:02;13.30;99.90
11736;DHT22;5924;51.398;7.088;2022-09-03T04:35:27;13.30;99.90
11736;DHT22;5924;51.398;7.088;2022-09-03T04:37:57;13.20;99.90
11736;DHT22;5924;51.398;7.088;2022-09-03T04:40:22;13.20;99.90
11736;DHT22;5924;51.398;7.088;2022-09-03T04:42:48;13.20;99.90
11736;DHT22;5924;51.398;7.088;2022-09-03T04:45:14;13.20;99.90
11736;DHT22;5924;51.398;7.088;2022-09-03T04:47:44;13.20;99.90
11736;DHT22;5924;51.398;7.088;2022-09-03T04:50:11;13.20;99.90
11736;DHT22;5924;51.398;7.088;2022-09-03T04:52:38;13.20;99.90
11736;DHT22;5924;51.398;7.088;2022-09-03T04:55:04;13.20;99.90
11736;DHT22;5924;51.398;7.088;2022-09-03T04:57:30;13.20;99.90
11736;DHT22;5924;51.398;7.088;2022-09-03T04:59:59;13.10;99.90
11736;DHT22;5924;51.398;7.088;2022-09-03T05:02:25;13.10;99.90
11736;DHT22;5924;51.398;7.088;2022-09-03T05:04:51;13.10;99.90
11736;DHT22;5924;51.398;7.088;2022-09-03T05:07:17;13.10;99.90
11736;DHT22;5924;51.398;7.088;2022-09-03T05:09:44;13.10;99.90
11736;DHT22;5924;51.398;7.088;2022-09-03T05:12:10;13.10;99.90
11736;DHT22;5924;51.398;7.088;2022-09-03T05:14:36;13.10;99.90
11736;DHT22;5924;51.398;7.088;2022-09-03T05:17:01;13.10;99.90
11736;DHT22;5924;51.398;7.088;2022-09-03T05:19:27;13.20;99.90
11736;DHT22;5924;51.398;7.088;2022-09-03T05:21:53;13.20;1.00
11736;DHT22;5924;51.398;7.088;2022-09-03T05:24:18;13.10;1.00
11736;DHT22;5924;51.398;7.088;2022-09-03T05:26:44;13.10;1.00
11736;DHT22;5924;51.398;7.088;2022-09-03T05:29:09;13.00;1.00
11736;DHT22;5924;51.398;7.088;2022-09-03T05:31:37;13.00;1.00
11736;DHT22;5924;51.398;7.088;2022-09-03T05:34:04;12.90;3.30
11736;DHT22;5924;51.398;7.088;2022-09-03T05:36:32;12.90;68.50
11736;DHT22;5924;51.398;7.088;2022-09-03T05:39:02;12.80;99.90
11736;DHT22;5924;51.398;7.088;2022-09-03T05:41:28;12.80;99.90
11736;DHT22;5924;51.398;7.088;2022-09-03T05:43:55;12.80;99.90
11736;DHT22;5924;51.398;7.088;2022-09-03T05:46:31;12.80;99.90
11736;DHT22;5924;51.398;7.088;2022-09-03T05:48:59;12.80;99.90
11736;DHT22;5924;51.398;7.088;2022-09-03T05:51:25;12.80;99.90
11736;DHT22;5924;51.398;7.088;2022-09-03T05:53:51;12.90;99.90
11736;DHT22;5924;51.398;7.088;2022-09-03T05:56:22;13.00;99.90
11736;DHT22;5924;51.398;7.088;2022-09-03T05:58:51;13.00;99.90
11736;DHT22;5924;51.398;7.088;2022-09-03T06:01:19;13.10;99.90
11736;DHT22;5924;51.398;7.088;2022-09-03T06:03:51;13.20;99.90
11736;DHT22;5924;51.398;7.088;2022-09-03T06:06:17;13.30;99.90
11736;DHT22;5924;51.398;7.088;2022-09-03T06:08:50;13.40;96.70
11736;DHT22;5924;51.398;7.088;2022-09-03T06:11:16;13.50;59.90
11736;DHT22;5924;51.398;7.088;2022-09-03T06:13:42;13.60;1.00
11736;DHT22;5924;51.398;7.088;2022-09-03T06:16:08;13.70;1.00
11736;DHT22;5924;51.398;7.088;2022-09-03T06:18:33;13.80;1.00
11736;DHT22;5924;51.398;7.088;2022-09-03T06:21:01;13.80;1.00
11736;DHT22;5924;51.398;7.088;2022-09-03T06:23:28;13.80;95.00
11736;DHT22;5924;51.398;7.088;2022-09-03T06:28:33;13.90;99.90
11736;DHT22;5924;51.398;7.088;2022-09-03T06:31:04;14.00;99.90
11736;DHT22;5924;51.398;7.088;2022-09-03T06:33:32;14.10;99.90
11736;DHT22;5924;51.398;7.088;2022-09-03T06:35:59;14.20;99.90
11736;DHT22;5924;51.398;7.088;2022-09-03T06:38:27;14.30;99.90
11736;DHT22;5924;51.398;7.088;2022-09-03T06:40:54;14.40;99.90
11736;DHT22;5924;51.398;7.088;2022-09-03T06:43:22;14.50;99.90
11736;DHT22;5924;51.398;7.088;2022-09-03T06:45:59;14.50;58.40
11736;DHT22;5924;51.398;7.088;2022-09-03T06:48:26;14.70;15.50
11736;DHT22;5924;51.398;7.088;2022-09-03T06:50:56;14.80;29.80
11736;DHT22;5924;51.398;7.088;2022-09-03T06:53:24;14.90;1.00
11736;DHT22;5924;51.398;7.088;2022-09-03T06:58:20;15.20;1.00
11736;DHT22;5924;51.398;7.088;2022-09-03T07:00:47;15.30;1.00
11736;DHT22;5924;51.398;7.088;2022-09-03T07:03:14;15.50;1.00
11736;DHT22;5924;51.398;7.088;2022-09-03T07:05:42;15.60;1.00
11736;DHT22;5924;51.398;7.088;2022-09-03T07:08:09;15.70;1.00
11736;DHT22;5924;51.398;7.088;2022-09-03T07:10:38;15.90;99.90
11736;DHT22;5924;51.398;7.088;2022-09-03T07:13:04;16.20;98.90
11736;DHT22;5924;51.398;7.088;2022-09-03T07:15:33;16.30;1.00
11736;DHT22;5924;51.398;7.088;2022-09-03T07:17:59;16.40;1.00
11736;DHT22;5924;51.398;7.088;2022-09-03T07:20:25;16.50;1.00
11736;DHT22;5924;51.398;7.088;2022-09-03T07:22:54;16.70;1.00
11736;DHT22;5924;51.398;7.088;2022-09-03T07:25:21;16.90;99.90
11736;DHT22;5924;51.398;7.088;2022-09-03T07:27:47;17.00;99.90
11736;DHT22;5924;51.398;7.088;2022-09-03T07:30:16;17.10;1.00
11736;DHT22;5924;51.398;7.088;2022-09-03T07:32:44;17.20;99.90
11736;DHT22;5924;51.398;7.088;2022-09-03T07:35:13;17.40;1.00
11736;DHT22;5924;51.398;7.088;2022-09-03T07:37:40;17.60;99.90
11736;DHT22;5924;51.398;7.088;2022-09-03T07:40:08;17.70;1.00
11736;DHT22;5924;51.398;7.088;2022-09-03T07:42:35;17.80;1.00
11736;DHT22;5924;51.398;7.088;2022-09-03T07:45:06;17.90;26.90
11736;DHT22;5924;51.398;7.088;2022-09-03T07:47:35;18.00;1.00
11736;DHT22;5924;51.398;7.088;2022-09-03T07:50:02;18.20;1.00
11736;DHT22;5924;51.398;7.088;2022-09-03T07:52:28;18.30;99.90
11736;DHT22;5924;51.398;7.088;2022-09-03T07:54:53;18.50;99.90
11736;DHT22;5924;51.398;7.088;2022-09-03T07:57:19;18.70;99.90
11736;DHT22;5924;51.398;7.088;2022-09-03T07:59:45;18.90;99.90
11736;DHT22;5924;51.398;7.088;2022-09-03T08:02:10;19.20;20.50
11736;DHT22;5924;51.398;7.088;2022-09-03T08:04:36;19.40;1.00
11736;DHT22;5924;51.398;7.088;2022-09-03T08:07:02;19.60;1.00
11736;DHT22;5924;51.398;7.088;2022-09-03T08:09:28;19.80;1.00
11736;DHT22;5924;51.398;7.088;2022-09-03T08:11:54;19.90;1.00
11736;DHT22;5924;51.398;7.088;2022-09-03T08:14:19;20.00;1.00
11736;DHT22;5924;51.398;7.088;2022-09-03T08:16:46;20.20;1.00
11736;DHT22;5924;51.398;7.088;2022-09-03T08:19:12;20.30;1.00
11736;DHT22;5924;51.398;7.088;2022-09-03T08:21:39;20.50;1.00
11736;DHT22;5924;51.398;7.088;2022-09-03T08:24:10;20.60;1.00
11736;DHT22;5924;51.398;7.088;2022-09-03T08:26:39;20.80;1.00
11736;DHT22;5924;51.398;7.088;2022-09-03T08:29:06;20.90;1.00
11736;DHT22;5924;51.398;7.088;2022-09-03T08:31:32;21.10;1.00
11736;DHT22;5924;51.398;7.088;2022-09-03T08:34:00;21.20;1.00
11736;DHT22;5924;51.398;7.088;2022-09-03T08:36:32;21.30;1.00
11736;DHT22;5924;51.398;7.088;2022-09-03T08:39:00;21.50;1.00
11736;DHT22;5924;51.398;7.088;2022-09-03T08:44:49;21.70;1.00
11736;DHT22;5924;51.398;7.088;2022-09-03T08:47:24;21.80;1.00
11736;DHT22;5924;51.398;7.088;2022-09-03T08:52:44;21.90;1.00
11736;DHT22;5924;51.398;7.088;2022-09-03T09:00:41;22.20;1.00
11736;DHT22;5924;51.398;7.088;2022-09-03T09:06:07;22.50;1.00
11736;DHT22;5924;51.398;7.088;2022-09-03T09:11:36;22.60;1.00
11736;DHT22;5924;51.398;7.088;2022-09-03T09:14:24;22.70;1.00
11736;DHT22;5924;51.398;7.088;2022-09-03T09:19:53;22.90;1.00
11736;DHT22;5924;51.398;7.088;2022-09-03T09:22:43;22.90;1.00
11736;DHT22;5924;51.398;7.088;2022-09-03T09:25:15;23.00;1.00
11736;DHT22;5924;51.398;7.088;2022-09-03T09:27:54;23.20;1.00
11736;DHT22;5924;51.398;7.088;2022-09-03T09:30:21;23.30;1.00
11736;DHT22;5924;51.398;7.088;2022-09-03T09:32:46;23.40;1.00
11736;DHT22;5924;51.398;7.088;2022-09-03T09:35:13;23.40;1.00
11736;DHT22;5924;51.398;7.088;2022-09-03T09:37:54;23.30;1.00
11736;DHT22;5924;51.398;7.088;2022-09-03T09:40:35;23.20;1.00
11736;DHT22;5924;51.398;7.088;2022-09-03T09:43:09;23.30;1.00
11736;DHT22;5924;51.398;7.088;2022-09-03T09:45:37;23.40;1.00
11736;DHT22;5924;51.398;7.088;2022-09-03T09:51:26;23.60;1.00
11736;DHT22;5924;51.398;7.088;2022-09-03T09:56:28;24.20;1.00
11736;DHT22;5924;51.398;7.088;2022-09-03T09:59:08;24.40;1.00
11736;DHT22;5924;51.398;7.088;2022-09-03T10:01:40;24.60;1.00
11736;DHT22;5924;51.398;7.088;2022-09-03T10:04:29;24.70;1.00
11736;DHT22;5924;51.398;7.088;2022-09-03T10:06:59;24.80;1.00
11736;DHT22;5924;51.398;7.088;2022-09-03T10:09:29;24.90;1.00
11736;DHT22;5924;51.398;7.088;2022-09-03T10:12:13;25.00;1.00
11736;DHT22;5924;51.398;7.088;2022-09-03T10:14:54;25.00;1.00
11736;DHT22;5924;51.398;7.088;2022-09-03T10:18:07;24.90;1.00
11736;DHT22;5924;51.398;7.088;2022-09-03T10:23:27;24.80;1.00
11736;DHT22;5924;51.398;7.088;2022-09-03T10:26:03;24.90;1.00
11736;DHT22;5924;51.398;7.088;2022-09-03T10:28:34;24.90;1.00
11736;DHT22;5924;51.398;7.088;2022-09-03T10:33:46;24.90;1.00
11736;DHT22;5924;51.398;7.088;2022-09-03T10:36:25;25.10;99.90
11736;DHT22;5924;51.398;7.088;2022-09-03T10:50:19;25.00;1.00
11736;DHT22;5924;51.398;7.088;2022-09-03T10:53:13;25.00;1.00
11736;DHT22;5924;51.398;7.088;2022-09-03T10:56:02;25.20;1.00
11736;DHT22;5924;51.398;7.088;2022-09-03T11:04:50;25.10;18.10
11736;DHT22;5924;51.398;7.088;2022-09-03T11:07:25;25.10;99.90
11736;DHT22;5924;51.398;7.088;2022-09-03T11:15:33;24.70;1.00
11736;DHT22;5924;51.398;7.088;2022-09-03T11:18:07;24.80;1.00
11736;DHT22;5924;51.398;7.088;2022-09-03T11:20:38;24.80;99.90
11736;DHT22;5924;51.398;7.088;2022-09-03T11:23:06;24.90;1.00
11736;DHT22;5924;51.398;7.088;2022-09-03T11:25:40;25.10;1.00
11736;DHT22;5924;51.398;7.088;2022-09-03T11:34:25;25.70;20.90
11736;DHT22;5924;51.398;7.088;2022-09-03T11:42:02;25.80;1.00
11736;DHT22;5924;51.398;7.088;2022-09-03T11:44:42;25.70;99.90
11736;DHT22;5924;51.398;7.088;2022-09-03T11:49:52;25.50;83.10
11736;DHT22;5924;51.398;7.088;2022-09-03T11:52:30;25.90;99.90
11736;DHT22;5924;51.398;7.088;2022-09-03T11:55:05;25.40;99.90
11736;DHT22;5924;51.398;7.088;2022-09-03T11:57:32;25.50;99.90
11736;DHT22;5924;51.398;7.088;2022-09-03T12:00:16;25.50;6.80
11736;DHT22;5924;51.398;7.088;2022-09-03T12:02:48;25.50;1.00
11736;DHT22;5924;51.398;7.088;2022-09-03T12:12:13;25.90;99.90
11736;DHT22;5924;51.398;7.088;2022-09-03T12:14:35;26.10;99.90
11736;DHT22;5924;51.398;7.088;2022-09-03T12:19:53;26.50;99.90
11736;DHT22;5924;51.398;7.088;2022-09-03T12:22:21;26.80;99.90
11736;DHT22;5924;51.398;7.088;2022-09-03T12:24:48;27.20;1.00
11736;DHT22;5924;51.398;7.088;2022-09-03T12:27:24;27.70;99.90
11736;DHT22;5924;51.398;7.088;2022-09-03T12:29:58;28.10;99.90
11736;DHT22;5924;51.398;7.088;2022-09-03T12:32:27;28.10;1.00
11736;DHT22;5924;51.398;7.088;2022-09-03T12:34:54;27.90;99.90
11736;DHT22;5924;51.398;7.088;2022-09-03T12:37:32;27.60;99.90
11736;DHT22;5924;51.398;7.088;2022-09-03T12:40:00;27.20;1.00
11736;DHT22;5924;51.398;7.088;2022-09-03T12:42:28;26.70;1.00
11736;DHT22;5924;51.398;7.088;2022-09-03T12:44:54;26.30;1.00
11736;DHT22;5924;51.398;7.088;2022-09-03T12:47:23;26.10;99.90
11736;DHT22;5924;51.398;7.088;2022-09-03T12:49:51;25.80;99.90
11736;DHT22;5924;51.398;7.088;2022-09-03T12:52:24;25.60;99.90
11736;DHT22;5924;51.398;7.088;2022-09-03T12:57:45;25.40;1.00
11736;DHT22;5924;51.398;7.088;2022-09-03T13:00:15;25.40;99.90
11736;DHT22;5924;51.398;7.088;2022-09-03T13:03:11;25.30;99.90
11736;DHT22;5924;51.398;7.088;2022-09-03T13:05:50;25.30;99.90
11736;DHT22;5924;51.398;7.088;2022-09-03T13:08:21;25.30;99.90
11736;DHT22;5924;51.398;7.088;2022-09-03T13:10:54;25.30;99.90
11736;DHT22;5924;51.398;7.088;2022-09-03T13:13:29;25.30;1.00
11736;DHT22;5924;51.398;7.088;2022-09-03T13:32:52;26.40;99.90
11736;DHT22;5924;51.398;7.088;2022-09-03T13:35:29;26.60;1.00
11736;DHT22;5924;51.398;7.088;2022-09-03T13:41:11;27.90;1.00
11736;DHT22;5924;51.398;7.088;2022-09-03T13:44:10;28.30;47.60
11736;DHT22;5924;51.398;7.088;2022-09-03T13:50:15;30.00;1.00
11736;DHT22;5924;51.398;7.088;2022-09-03T13:52:47;30.40;99.90
11736;DHT22;5924;51.398;7.088;2022-09-03T14:00:46;31.20;1.00
11736;DHT22;5924;51.398;7.088;2022-09-03T14:06:17;29.90;1.00
11736;DHT22;5924;51.398;7.088;2022-09-03T14:11:45;29.30;1.00
11736;DHT22;5924;51.398;7.088;2022-09-03T14:14:27;30.50;1.00
11736;DHT22;5924;51.398;7.088;2022-09-03T14:22:22;34.80;1.00
11736;DHT22;5924;51.398;7.088;2022-09-03T14:24:55;34.50;1.00
11736;DHT22;5924;51.398;7.088;2022-09-03T14:27:27;34.60;1.00
11736;DHT22;5924;51.398;7.088;2022-09-03T14:30:05;34.60;63.30
11736;DHT22;5924;51.398;7.088;2022-09-03T14:41:06;30.60;68.10
11736;DHT22;5924;51.398;7.088;2022-09-03T14:50:06;29.30;72.30
11736;DHT22;5924;51.398;7.088;2022-09-03T15:00:57;30.80;68.10
11736;DHT22;5924;51.398;7.088;2022-09-03T15:06:15;30.60;68.90
11736;DHT22;5924;51.398;7.088;2022-09-03T15:11:34;29.90;69.70
11736;DHT22;5924;51.398;7.088;2022-09-03T15:14:14;29.40;70.20
11736;DHT22;5924;51.398;7.088;2022-09-03T15:16:58;28.90;71.20
11736;DHT22;5924;51.398;7.088;2022-09-03T15:30:22;27.30;76.20
11736;DHT22;5924;51.398;7.088;2022-09-03T15:32:57;27.10;76.10
11736;DHT22;5924;51.398;7.088;2022-09-03T15:38:18;26.70;76.90
11736;DHT22;5924;51.398;7.088;2022-09-03T15:43:21;26.30;78.10
11736;DHT22;5924;51.398;7.088;2022-09-03T15:46:11;24.60;79.00
11736;DHT22;5924;51.398;7.088;2022-09-03T15:51:26;25.90;80.40
11736;DHT22;5924;51.398;7.088;2022-09-03T15:54:13;25.80;80.80
11736;DHT22;5924;51.398;7.088;2022-09-03T15:57:09;25.70;81.40
11736;DHT22;5924;51.398;7.088;2022-09-03T15:59:59;25.60;82.60
11736;DHT22;5924;51.398;7.088;2022-09-03T16:05:42;25.40;82.30
11736;DHT22;5924;51.398;7.088;2022-09-03T16:08:43;25.20;83.00
11736;DHT22;5924;51.398;7.088;2022-09-03T16:19:16;24.50;88.70
11736;DHT22;5924;51.398;7.088;2022-09-03T16:21:45;24.40;89.30
11736;DHT22;5924;51.398;7.088;2022-09-03T16:29:39;24.10;90.70
11736;DHT22;5924;51.398;7.088;2022-09-03T16:34:56;24.00;91.20
11736;DHT22;5924;51.398;7.088;2022-09-03T16:40:35;23.80;92.10
11736;DHT22;5924;51.398;7.088;2022-09-03T16:43:26;23.70;92.50
11736;DHT22;5924;51.398;7.088;2022-09-03T16:46:04;23.70;92.80
11736;DHT22;5924;51.398;7.088;2022-09-03T16:48:53;23.60;93.20
11736;DHT22;5924;51.398;7.088;2022-09-03T16:54:36;23.40;94.60
11736;DHT22;5924;51.398;7.088;2022-09-03T16:57:21;23.30;95.00
11736;DHT22;5924;51.398;7.088;2022-09-03T17:05:57;23.00;96.60
11736;DHT22;5924;51.398;7.088;2022-09-03T17:08:31;22.90;97.20
11736;DHT22;5924;51.398;7.088;2022-09-03T17:11:33;22.80;97.90
11736;DHT22;5924;51.398;7.088;2022-09-03T17:17:21;22.70;99.90
11736;DHT22;5924;51.398;7.088;2022-09-03T17:20:51;22.60;99.90
11736;DHT22;5924;51.398;7.088;2022-09-03T17:25:39;22.50;99.90
11736;DHT22;5924;51.398;7.088;2022-09-03T17:33:47;22.30;99.90
11736;DHT22;5924;51.398;7.088;2022-09-03T17:36:21;22.30;99.90
11736;DHT22;5924;51.398;7.088;2022-09-03T17:41:45;22.20;99.90
11736;DHT22;5924;51.398;7.088;2022-09-03T17:46:46;22.10;1.00
11736;DHT22;5924;51.398;7.088;2022-09-03T17:49:24;22.00;1.00
11736;DHT22;5924;51.398;7.088;2022-09-03T18:02:43;21.80;1.00
11736;DHT22;5924;51.398;7.088;2022-09-03T18:05:25;21.70;1.00
11736;DHT22;5924;51.398;7.088;2022-09-03T18:08:06;21.60;99.90
11736;DHT22;5924;51.398;7.088;2022-09-03T18:14:06;21.30;1.00
11736;DHT22;5924;51.398;7.088;2022-09-03T18:16:36;21.10;1.00
11736;DHT22;5924;51.398;7.088;2022-09-03T18:21:45;20.80;99.90
11736;DHT22;5924;51.398;7.088;2022-09-03T18:24:40;20.70;99.90
11736;DHT22;5924;51.398;7.088;2022-09-03T18:27:35;20.60;99.90
11736;DHT22;5924;51.398;7.088;2022-09-03T18:30:21;22.60;99.90
11736;DHT22;5924;51.398;7.088;2022-09-03T18:33:06;20.40;1.00
11736;DHT22;5924;51.398;7.088;2022-09-03T18:35:50;20.30;1.00
11736;DHT22;5924;51.398;7.088;2022-09-03T18:38:36;20.20;1.00
11736;DHT22;5924;51.398;7.088;2022-09-03T18:41:53;20.10;1.00
11736;DHT22;5924;51.398;7.088;2022-09-03T18:54:34;19.90;1.00
11736;DHT22;5924;51.398;7.088;2022-09-03T18:57:34;19.80;1.00
11736;DHT22;5924;51.398;7.088;2022-09-03T19:00:23;19.70;1.00
11736;DHT22;5924;51.398;7.088;2022-09-03T19:03:25;19.60;1.00
11736;DHT22;5924;51.398;7.088;2022-09-03T19:06:24;19.50;1.00
11736;DHT22;5924;51.398;7.088;2022-09-03T19:09:32;19.40;1.00
11736;DHT22;5924;51.398;7.088;2022-09-03T19:15:38;19.20;1.00
11736;DHT22;5924;51.398;7.088;2022-09-03T19:21:35;19.00;1.00
11736;DHT22;5924;51.398;7.088;2022-09-03T19:24:25;18.90;1.00
11736;DHT22;5924;51.398;7.088;2022-09-03T19:27:39;18.80;1.00
11736;DHT22;5924;51.398;7.088;2022-09-03T19:36:47;18.70;1.00
11736;DHT22;5924;51.398;7.088;2022-09-03T19:54:31;18.40;1.00
11736;DHT22;5924;51.398;7.088;2022-09-03T19:57:16;18.40;1.00
11736;DHT22;5924;51.398;7.088;2022-09-03T20:00:03;18.30;1.00
11736;DHT22;5924;51.398;7.088;2022-09-03T20:02:48;18.20;1.00
11736;DHT22;5924;51.398;7.088;2022-09-03T20:05:34;18.20;1.00
11736;DHT22;5924;51.398;7.088;2022-09-03T20:08:22;18.20;1.00
11736;DHT22;5924;51.398;7.088;2022-09-03T20:11:15;18.10;1.00
11736;DHT22;5924;51.398;7.088;2022-09-03T20:13:42;18.10;1.00
11736;DHT22;5924;51.398;7.088;2022-09-03T20:16:40;18.00;1.00
11736;DHT22;5924;51.398;7.088;2022-09-03T20:20:09;17.90;1.00
11736;DHT22;5924;51.398;7.088;2022-09-03T20:30:21;17.60;1.00
11736;DHT22;5924;51.398;7.088;2022-09-03T20:34:18;17.50;1.00
11736;DHT22;5924;51.398;7.088;2022-09-03T20:36:17;17.50;1.00
11736;DHT22;5924;51.398;7.088;2022-09-03T20:39:13;17.40;1.00
11736;DHT22;5924;51.398;7.088;2022-09-03T20:44:57;17.40;1.00
11736;DHT22;5924;51.398;7.088;2022-09-03T20:50:53;17.30;1.00
11736;DHT22;5924;51.398;7.088;2022-09-03T20:54:07;17.30;1.00
11736;DHT22;5924;51.398;7.088;2022-09-03T20:56:35;17.30;1.00
11736;DHT22;5924;51.398;7.088;2022-09-03T21:10:00;17.10;1.00
11736;DHT22;5924;51.398;7.088;2022-09-03T21:15:32;17.10;1.00
11736;DHT22;5924;51.398;7.088;2022-09-03T21:21:23;17.00;1.00
11736;DHT22;5924;51.398;7.088;2022-09-03T21:24:19;17.00;1.00
11736;DHT22;5924;51.398;7.088;2022-09-03T21:27:07;17.00;1.00
11736;DHT22;5924;51.398;7.088;2022-09-03T21:29:48;17.00;1.00
11736;DHT22;5924;51.398;7.088;2022-09-03T21:32:23;17.00;1.00
11736;DHT22;5924;51.398;7.088;2022-09-03T21:37:58;19.20;1.00
11736;DHT22;5924;51.398;7.088;2022-09-03T21:40:27;17.10;1.00
11736;DHT22;5924;51.398;7.088;2022-09-03T21:49:00;17.00;1.00
11736;DHT22;5924;51.398;7.088;2022-09-03T21:51:30;16.90;1.00
11736;DHT22;5924;51.398;7.088;2022-09-03T21:54:06;16.90;1.00
11736;DHT22;5924;51.398;7.088;2022-09-03T21:57:11;16.80;1.00
11736;DHT22;5924;51.398;7.088;2022-09-03T22:02:29;16.50;7.30
11736;DHT22;5924;51.398;7.088;2022-09-03T22:04:57;16.50;12.10
11736;DHT22;5924;51.398;7.088;2022-09-03T22:15:12;16.30;25.30
11736;DHT22;5924;51.398;7.088;2022-09-03T22:17:53;16.20;28.70
11736;DHT22;5924;51.398;7.088;2022-09-03T22:20:24;16.20;32.30
11736;DHT22;5924;51.398;7.088;2022-09-03T22:25:35;16.20;34.80
11736;DHT22;5924;51.398;7.088;2022-09-03T22:28:24;16.10;35.60
11736;DHT22;5924;51.398;7.088;2022-09-03T22:34:01;16.00;39.30
11736;DHT22;5924;51.398;7.088;2022-09-03T22:36:41;16.00;40.40
11736;DHT22;5924;51.398;7.088;2022-09-03T22:42:07;16.00;42.30
11736;DHT22;5924;51.398;7.088;2022-09-03T22:49:49;15.90;47.80
11736;DHT22;5924;51.398;7.088;2022-09-03T22:52:22;15.80;49.60
11736;DHT22;5924;51.398;7.088;2022-09-03T22:57:17;15.60;54.40
11736;DHT22;5924;51.398;7.088;2022-09-03T22:59:54;15.60;56.40
11736;DHT22;5924;51.398;7.088;2022-09-03T23:02:24;15.60;58.10
11736;DHT22;5924;51.398;7.088;2022-09-03T23:13:22;15.70;61.10
11736;DHT22;5924;51.398;7.088;2022-09-03T23:18:35;15.70;59.00
11736;DHT22;5924;51.398;7.088;2022-09-03T23:23:33;15.60;62.20
11736;DHT22;5924;51.398;7.088;2022-09-03T23:26:21;15.60;62.80
11736;DHT22;5924;51.398;7.088;2022-09-03T23:29:02;15.60;62.50